sensor_id;sensor_type;location;lat;lon;timestamp;P1;durP1;ratioP1;P2;durP2;ratioP2
25950;SDS011;13748;52.240;6.002;2023-06-10T00:01:52;6.70;;;3.80;;
25950;SDS011;13748;52.240;6.002;2023-06-10T00:04:21;7.00;;;4.10;;
25950;SDS011;13748;52.240;6.002;2023-06-10T00:06:48;6.65;;;3.97;;
25950;SDS011;13748;52.240;6.002;2023-06-10T00:09:15;6.32;;;3.75;;
25950;SDS011;13748;52.240;6.002;2023-06-10T00:11:42;8.63;;;4.65;;
25950;SDS011;13748;52.240;6.002;2023-06-10T00:14:09;7.75;;;4.15;;
25950;SDS011;13748;52.240;6.002;2023-06-10T00:16:36;9.52;;;3.88;;
25950;SDS011;13748;52.240;6.002;2023-06-10T00:19:05;8.32;;;4.45;;
25950;SDS011;13748;52.240;6.002;2023-06-10T00:21:32;5.95;;;3.65;;
25950;SDS011;13748;52.240;6.002;2023-06-10T00:24:07;7.10;;;4.13;;
25950;SDS011;13748;52.240;6.002;2023-06-10T00:26:40;6.25;;;4.30;;
25950;SDS011;13748;52.240;6.002;2023-06-10T00:29:09;5.28;;;4.13;;
25950;SDS011;13748;52.240;6.002;2023-06-10T00:31:36;5.90;;;3.97;;
25950;SDS011;13748;52.240;6.002;2023-06-10T00:34:04;8.20;;;4.50;;
25950;SDS011;13748;52.240;6.002;2023-06-10T00:36:31;8.88;;;4.53;;
25950;SDS011;13748;52.240;6.002;2023-06-10T00:38:58;7.85;;;4.38;;
25950;SDS011;13748;52.240;6.002;2023-06-10T00:41:25;8.80;;;4.10;;
25950;SDS011;13748;52.240;6.002;2023-06-10T00:43:52;6.90;;;3.80;;
25950;SDS011;13748;52.240;6.002;2023-06-10T00:46:20;9.15;;;4.57;;
25950;SDS011;13748;52.240;6.002;2023-06-10T00:48:48;7.25;;;4.53;;
25950;SDS011;13748;52.240;6.002;2023-06-10T00:51:16;7.95;;;4.32;;
25950;SDS011;13748;52.240;6.002;2023-06-10T00:53:45;7.72;;;4.60;;
25950;SDS011;13748;52.240;6.002;2023-06-10T00:56:12;7.68;;;4.57;;
25950;SDS011;13748;52.240;6.002;2023-06-10T00:58:39;9.05;;;5.00;;
25950;SDS011;13748;52.240;6.002;2023-06-10T01:01:06;8.02;;;5.00;;
25950;SDS011;13748;52.240;6.002;2023-06-10T01:03:37;7.63;;;4.65;;
25950;SDS011;13748;52.240;6.002;2023-06-10T01:10:01;8.93;;;4.70;;
25950;SDS011;13748;52.240;6.002;2023-06-10T01:12:10;7.03;;;4.43;;
25950;SDS011;13748;52.240;6.002;2023-06-10T01:15:00;7.72;;;4.57;;
25950;SDS011;13748;52.240;6.002;2023-06-10T01:17:29;9.30;;;5.20;;
25950;SDS011;13748;52.240;6.002;2023-06-10T01:19:57;8.10;;;4.65;;
25950;SDS011;13748;52.240;6.002;2023-06-10T01:22:24;9.00;;;5.15;;
25950;SDS011;13748;52.240;6.002;2023-06-10T01:24:55;7.25;;;4.55;;
25950;SDS011;13748;52.240;6.002;2023-06-10T01:27:26;7.93;;;5.00;;
25950;SDS011;13748;52.240;6.002;2023-06-10T01:29:58;7.50;;;4.68;;
25950;SDS011;13748;52.240;6.002;2023-06-10T01:32:34;7.80;;;4.53;;
25950;SDS011;13748;52.240;6.002;2023-06-10T01:35:05;9.13;;;5.45;;
25950;SDS011;13748;52.240;6.002;2023-06-10T01:37:34;8.13;;;4.90;;
25950;SDS011;13748;52.240;6.002;2023-06-10T01:40:05;9.10;;;4.05;;
25950;SDS011;13748;52.240;6.002;2023-06-10T01:42:33;7.72;;;4.60;;
25950;SDS011;13748;52.240;6.002;2023-06-10T01:45:00;9.73;;;5.22;;
25950;SDS011;13748;52.240;6.002;2023-06-10T01:47:28;10.73;;;5.18;;
25950;SDS011;13748;52.240;6.002;2023-06-10T01:49:55;10.50;;;5.40;;
25950;SDS011;13748;52.240;6.002;2023-06-10T01:52:22;8.85;;;5.43;;
25950;SDS011;13748;52.240;6.002;2023-06-10T01:54:49;10.05;;;5.30;;
25950;SDS011;13748;52.240;6.002;2023-06-10T01:57:15;9.07;;;4.78;;
25950;SDS011;13748;52.240;6.002;2023-06-10T01:59:42;10.63;;;5.47;;
25950;SDS011;13748;52.240;6.002;2023-06-10T02:02:10;11.63;;;5.82;;
25950;SDS011;13748;52.240;6.002;2023-06-10T02:04:37;10.57;;;5.17;;
25950;SDS011;13748;52.240;6.002;2023-06-10T02:07:04;6.68;;;4.80;;
25950;SDS011;13748;52.240;6.002;2023-06-10T02:09:32;9.07;;;5.60;;
25950;SDS011;13748;52.240;6.002;2023-06-10T02:12:02;9.27;;;5.40;;
25950;SDS011;13748;52.240;6.002;2023-06-10T02:14:29;10.97;;;5.53;;
25950;SDS011;13748;52.240;6.002;2023-06-10T02:16:58;10.30;;;5.00;;
25950;SDS011;13748;52.240;6.002;2023-06-10T02:19:25;9.65;;;5.00;;
25950;SDS011;13748;52.240;6.002;2023-06-10T02:21:53;11.38;;;5.03;;
25950;SDS011;13748;52.240;6.002;2023-06-10T02:24:20;11.13;;;4.70;;
25950;SDS011;13748;52.240;6.002;2023-06-10T02:26:47;10.07;;;5.20;;
25950;SDS011;13748;52.240;6.002;2023-06-10T02:29:14;8.00;;;5.27;;
25950;SDS011;13748;52.240;6.002;2023-06-10T02:31:41;11.10;;;5.17;;
25950;SDS011;13748;52.240;6.002;2023-06-10T02:34:07;8.77;;;4.70;;
25950;SDS011;13748;52.240;6.002;2023-06-10T02:36:34;9.03;;;4.87;;
25950;SDS011;13748;52.240;6.002;2023-06-10T02:39:02;10.40;;;5.17;;
25950;SDS011;13748;52.240;6.002;2023-06-10T02:41:30;10.93;;;5.67;;
25950;SDS011;13748;52.240;6.002;2023-06-10T02:43:57;9.77;;;5.70;;
25950;SDS011;13748;52.240;6.002;2023-06-10T02:46:24;7.63;;;4.83;;
25950;SDS011;13748;52.240;6.002;2023-06-10T02:48:51;12.60;;;6.00;;
25950;SDS011;13748;52.240;6.002;2023-06-10T02:51:18;7.97;;;4.60;;
25950;SDS011;13748;52.240;6.002;2023-06-10T02:53:45;9.77;;;5.00;;
25950;SDS011;13748;52.240;6.002;2023-06-10T02:56:13;9.37;;;5.67;;
25950;SDS011;13748;52.240;6.002;2023-06-10T02:58:42;9.60;;;5.00;;
25950;SDS011;13748;52.240;6.002;2023-06-10T03:01:09;11.93;;;5.40;;
25950;SDS011;13748;52.240;6.002;2023-06-10T03:03:36;7.67;;;5.20;;
25950;SDS011;13748;52.240;6.002;2023-06-10T03:06:11;11.90;;;5.50;;
25950;SDS011;13748;52.240;6.002;2023-06-10T03:08:39;12.07;;;5.53;;
25950;SDS011;13748;52.240;6.002;2023-06-10T03:11:06;9.33;;;5.60;;
25950;SDS011;13748;52.240;6.002;2023-06-10T03:13:33;10.17;;;5.37;;
25950;SDS011;13748;52.240;6.002;2023-06-10T03:16:00;9.97;;;6.07;;
25950;SDS011;13748;52.240;6.002;2023-06-10T03:18:29;11.33;;;5.73;;
25950;SDS011;13748;52.240;6.002;2023-06-10T03:20:56;10.17;;;5.37;;
25950;SDS011;13748;52.240;6.002;2023-06-10T03:23:23;10.27;;;5.43;;
25950;SDS011;13748;52.240;6.002;2023-06-10T03:25:50;10.17;;;5.70;;
25950;SDS011;13748;52.240;6.002;2023-06-10T03:28:17;8.37;;;5.57;;
25950;SDS011;13748;52.240;6.002;2023-06-10T03:30:44;10.57;;;6.00;;
25950;SDS011;13748;52.240;6.002;2023-06-10T03:33:10;9.40;;;5.40;;
25950;SDS011;13748;52.240;6.002;2023-06-10T03:35:37;9.73;;;5.80;;
25950;SDS011;13748;52.240;6.002;2023-06-10T03:38:04;13.33;;;6.13;;
25950;SDS011;13748;52.240;6.002;2023-06-10T03:40:31;9.13;;;5.43;;
25950;SDS011;13748;52.240;6.002;2023-06-10T03:42:58;10.47;;;5.23;;
25950;SDS011;13748;52.240;6.002;2023-06-10T03:45:26;11.13;;;5.43;;
25950;SDS011;13748;52.240;6.002;2023-06-10T03:47:54;9.30;;;4.97;;
25950;SDS011;13748;52.240;6.002;2023-06-10T03:50:22;10.67;;;6.20;;
25950;SDS011;13748;52.240;6.002;2023-06-10T03:52:50;12.40;;;5.77;;
25950;SDS011;13748;52.240;6.002;2023-06-10T03:55:17;11.10;;;6.10;;
25950;SDS011;13748;52.240;6.002;2023-06-10T03:57:44;9.33;;;5.97;;
25950;SDS011;13748;52.240;6.002;2023-06-10T04:00:11;11.23;;;6.20;;
25950;SDS011;13748;52.240;6.002;2023-06-10T04:02:38;12.73;;;5.93;;
25950;SDS011;13748;52.240;6.002;2023-06-10T04:05:24;9.97;;;5.63;;
25950;SDS011;13748;52.240;6.002;2023-06-10T04:07:51;11.70;;;6.07;;
25950;SDS011;13748;52.240;6.002;2023-06-10T04:10:18;10.70;;;5.33;;
25950;SDS011;13748;52.240;6.002;2023-06-10T04:12:45;9.20;;;6.23;;
25950;SDS011;13748;52.240;6.002;2023-06-10T04:15:12;8.23;;;5.53;;
25950;SDS011;13748;52.240;6.002;2023-06-10T04:17:39;10.80;;;6.40;;
25950;SDS011;13748;52.240;6.002;2023-06-10T04:20:06;11.60;;;6.23;;
25950;SDS011;13748;52.240;6.002;2023-06-10T04:22:34;10.30;;;6.00;;
25950;SDS011;13748;52.240;6.002;2023-06-10T04:25:01;9.40;;;5.80;;
25950;SDS011;13748;52.240;6.002;2023-06-10T04:27:29;11.73;;;5.77;;
25950;SDS011;13748;52.240;6.002;2023-06-10T04:29:56;8.40;;;5.83;;
25950;SDS011;13748;52.240;6.002;2023-06-10T04:32:23;12.23;;;6.27;;
25950;SDS011;13748;52.240;6.002;2023-06-10T04:34:50;12.50;;;6.30;;
25950;SDS011;13748;52.240;6.002;2023-06-10T04:37:17;7.80;;;5.77;;
25950;SDS011;13748;52.240;6.002;2023-06-10T04:39:44;9.47;;;6.17;;
25950;SDS011;13748;52.240;6.002;2023-06-10T04:42:11;9.40;;;5.43;;
25950;SDS011;13748;52.240;6.002;2023-06-10T04:44:38;9.40;;;6.17;;
25950;SDS011;13748;52.240;6.002;2023-06-10T04:47:05;9.90;;;6.03;;
25950;SDS011;13748;52.240;6.002;2023-06-10T04:49:34;8.90;;;5.20;;
25950;SDS011;13748;52.240;6.002;2023-06-10T04:52:20;11.20;;;5.87;;
25950;SDS011;13748;52.240;6.002;2023-06-10T04:54:47;10.20;;;5.67;;
25950;SDS011;13748;52.240;6.002;2023-06-10T04:57:14;8.30;;;5.80;;
25950;SDS011;13748;52.240;6.002;2023-06-10T04:59:41;8.97;;;5.63;;
25950;SDS011;13748;52.240;6.002;2023-06-10T05:02:08;10.40;;;6.23;;
25950;SDS011;13748;52.240;6.002;2023-06-10T05:04:36;9.25;;;6.30;;
25950;SDS011;13748;52.240;6.002;2023-06-10T05:07:02;10.07;;;6.03;;
25950;SDS011;13748;52.240;6.002;2023-06-10T05:09:30;11.05;;;6.22;;
25950;SDS011;13748;52.240;6.002;2023-06-10T05:11:56;10.13;;;6.32;;
25950;SDS011;13748;52.240;6.002;2023-06-10T05:14:24;10.45;;;6.18;;
25950;SDS011;13748;52.240;6.002;2023-06-10T05:16:52;11.32;;;5.70;;
25950;SDS011;13748;52.240;6.002;2023-06-10T05:19:19;11.57;;;6.65;;
25950;SDS011;13748;52.240;6.002;2023-06-10T05:21:46;10.15;;;5.95;;
25950;SDS011;13748;52.240;6.002;2023-06-10T05:24:14;8.63;;;5.97;;
25950;SDS011;13748;52.240;6.002;2023-06-10T05:26:41;12.23;;;5.90;;
25950;SDS011;13748;52.240;6.002;2023-06-10T05:29:08;9.25;;;5.45;;
25950;SDS011;13748;52.240;6.002;2023-06-10T05:31:37;9.40;;;5.47;;
25950;SDS011;13748;52.240;6.002;2023-06-10T05:34:05;9.68;;;5.95;;
25950;SDS011;13748;52.240;6.002;2023-06-10T05:36:32;9.15;;;5.63;;
25950;SDS011;13748;52.240;6.002;2023-06-10T05:38:59;7.63;;;4.70;;
25950;SDS011;13748;52.240;6.002;2023-06-10T05:41:26;8.70;;;5.15;;
25950;SDS011;13748;52.240;6.002;2023-06-10T05:43:53;10.10;;;5.90;;
25950;SDS011;13748;52.240;6.002;2023-06-10T05:46:20;9.18;;;5.32;;
25950;SDS011;13748;52.240;6.002;2023-06-10T05:48:47;11.55;;;5.55;;
25950;SDS011;13748;52.240;6.002;2023-06-10T05:51:14;8.27;;;5.40;;
25950;SDS011;13748;52.240;6.002;2023-06-10T05:53:41;9.32;;;5.60;;
25950;SDS011;13748;52.240;6.002;2023-06-10T05:56:08;6.97;;;5.00;;
25950;SDS011;13748;52.240;6.002;2023-06-10T05:58:35;8.57;;;5.63;;
25950;SDS011;13748;52.240;6.002;2023-06-10T06:01:02;9.30;;;5.68;;
25950;SDS011;13748;52.240;6.002;2023-06-10T06:03:28;9.05;;;5.20;;
25950;SDS011;13748;52.240;6.002;2023-06-10T06:05:56;9.90;;;5.53;;
25950;SDS011;13748;52.240;6.002;2023-06-10T06:08:22;8.57;;;5.43;;
25950;SDS011;13748;52.240;6.002;2023-06-10T06:10:49;10.55;;;5.63;;
25950;SDS011;13748;52.240;6.002;2023-06-10T06:13:17;10.05;;;5.13;;
25950;SDS011;13748;52.240;6.002;2023-06-10T06:15:44;6.90;;;4.93;;
25950;SDS011;13748;52.240;6.002;2023-06-10T06:18:11;9.55;;;6.07;;
25950;SDS011;13748;52.240;6.002;2023-06-10T06:20:37;6.55;;;5.00;;
25950;SDS011;13748;52.240;6.002;2023-06-10T06:23:04;7.75;;;4.97;;
25950;SDS011;13748;52.240;6.002;2023-06-10T06:25:32;7.38;;;4.75;;
25950;SDS011;13748;52.240;6.002;2023-06-10T06:27:59;9.50;;;6.18;;
25950;SDS011;13748;52.240;6.002;2023-06-10T06:30:26;8.23;;;5.72;;
25950;SDS011;13748;52.240;6.002;2023-06-10T06:32:53;7.75;;;5.53;;
25950;SDS011;13748;52.240;6.002;2023-06-10T06:35:20;8.70;;;5.10;;
25950;SDS011;13748;52.240;6.002;2023-06-10T06:37:46;7.25;;;4.65;;
25950;SDS011;13748;52.240;6.002;2023-06-10T06:40:13;7.10;;;4.80;;
25950;SDS011;13748;52.240;6.002;2023-06-10T06:42:41;7.22;;;5.05;;
25950;SDS011;13748;52.240;6.002;2023-06-10T06:45:08;7.00;;;4.65;;
25950;SDS011;13748;52.240;6.002;2023-06-10T06:47:35;6.55;;;5.07;;
25950;SDS011;13748;52.240;6.002;2023-06-10T06:50:02;6.90;;;4.53;;
25950;SDS011;13748;52.240;6.002;2023-06-10T06:52:29;8.02;;;4.80;;
25950;SDS011;13748;52.240;6.002;2023-06-10T06:54:56;9.15;;;5.10;;
25950;SDS011;13748;52.240;6.002;2023-06-10T06:57:23;9.27;;;4.35;;
25950;SDS011;13748;52.240;6.002;2023-06-10T06:59:50;7.63;;;5.00;;
25950;SDS011;13748;52.240;6.002;2023-06-10T07:02:17;8.65;;;5.45;;
25950;SDS011;13748;52.240;6.002;2023-06-10T07:04:45;7.05;;;5.32;;
25950;SDS011;13748;52.240;6.002;2023-06-10T07:07:15;7.75;;;4.70;;
25950;SDS011;13748;52.240;6.002;2023-06-10T07:09:43;8.02;;;5.15;;
25950;SDS011;13748;52.240;6.002;2023-06-10T07:12:09;8.63;;;5.10;;
25950;SDS011;13748;52.240;6.002;2023-06-10T07:14:36;6.95;;;5.00;;
25950;SDS011;13748;52.240;6.002;2023-06-10T07:17:03;5.88;;;4.70;;
25950;SDS011;13748;52.240;6.002;2023-06-10T07:19:30;10.82;;;4.82;;
25950;SDS011;13748;52.240;6.002;2023-06-10T07:21:57;8.63;;;5.05;;
25950;SDS011;13748;52.240;6.002;2023-06-10T07:24:23;7.80;;;5.10;;
25950;SDS011;13748;52.240;6.002;2023-06-10T07:26:50;6.35;;;4.75;;
25950;SDS011;13748;52.240;6.002;2023-06-10T07:29:17;7.97;;;4.80;;
25950;SDS011;13748;52.240;6.002;2023-06-10T07:31:44;7.25;;;4.82;;
25950;SDS011;13748;52.240;6.002;2023-06-10T07:34:11;8.00;;;5.40;;
25950;SDS011;13748;52.240;6.002;2023-06-10T07:36:38;7.65;;;4.35;;
25950;SDS011;13748;52.240;6.002;2023-06-10T07:39:05;7.38;;;4.75;;
25950;SDS011;13748;52.240;6.002;2023-06-10T07:41:33;6.78;;;4.40;;
25950;SDS011;13748;52.240;6.002;2023-06-10T07:44:00;6.80;;;4.13;;
25950;SDS011;13748;52.240;6.002;2023-06-10T07:46:26;8.57;;;4.75;;
25950;SDS011;13748;52.240;6.002;2023-06-10T07:48:54;7.75;;;4.72;;
25950;SDS011;13748;52.240;6.002;2023-06-10T07:51:21;9.10;;;4.30;;
25950;SDS011;13748;52.240;6.002;2023-06-10T07:53:48;6.25;;;4.55;;
25950;SDS011;13748;52.240;6.002;2023-06-10T07:56:15;10.68;;;5.25;;
25950;SDS011;13748;52.240;6.002;2023-06-10T07:58:41;9.10;;;4.53;;
25950;SDS011;13748;52.240;6.002;2023-06-10T08:01:08;5.90;;;4.65;;
25950;SDS011;13748;52.240;6.002;2023-06-10T08:03:35;11.40;;;5.80;;
25950;SDS011;13748;52.240;6.002;2023-06-10T08:06:03;6.63;;;4.53;;
25950;SDS011;13748;52.240;6.002;2023-06-10T08:08:30;7.10;;;4.07;;
25950;SDS011;13748;52.240;6.002;2023-06-10T08:10:56;5.00;;;4.28;;
25950;SDS011;13748;52.240;6.002;2023-06-10T08:13:23;5.85;;;4.30;;
25950;SDS011;13748;52.240;6.002;2023-06-10T08:15:51;6.10;;;4.22;;
25950;SDS011;13748;52.240;6.002;2023-06-10T08:18:19;6.50;;;4.90;;
25950;SDS011;13748;52.240;6.002;2023-06-10T08:20:47;5.28;;;4.20;;
25950;SDS011;13748;52.240;6.002;2023-06-10T08:23:14;4.72;;;4.13;;
25950;SDS011;13748;52.240;6.002;2023-06-10T08:25:41;6.53;;;4.05;;
25950;SDS011;13748;52.240;6.002;2023-06-10T08:28:08;9.63;;;4.70;;
25950;SDS011;13748;52.240;6.002;2023-06-10T08:30:34;10.23;;;4.68;;
25950;SDS011;13748;52.240;6.002;2023-06-10T08:33:01;6.85;;;4.28;;
25950;SDS011;13748;52.240;6.002;2023-06-10T08:35:28;6.15;;;4.38;;
25950;SDS011;13748;52.240;6.002;2023-06-10T08:37:55;7.75;;;4.20;;
25950;SDS011;13748;52.240;6.002;2023-06-10T08:40:22;5.80;;;4.03;;
25950;SDS011;13748;52.240;6.002;2023-06-10T08:42:49;5.93;;;4.43;;
25950;SDS011;13748;52.240;6.002;2023-06-10T08:45:25;6.13;;;4.10;;
25950;SDS011;13748;52.240;6.002;2023-06-10T08:47:57;6.10;;;4.00;;
25950;SDS011;13748;52.240;6.002;2023-06-10T08:50:25;7.32;;;4.03;;
25950;SDS011;13748;52.240;6.002;2023-06-10T08:52:57;7.28;;;4.05;;
25950;SDS011;13748;52.240;6.002;2023-06-10T08:55:37;5.57;;;4.18;;
25950;SDS011;13748;52.240;6.002;2023-06-10T08:58:07;6.22;;;4.05;;
25950;SDS011;13748;52.240;6.002;2023-06-10T09:00:34;6.68;;;3.80;;
25950;SDS011;13748;52.240;6.002;2023-06-10T09:03:04;5.22;;;4.20;;
25950;SDS011;13748;52.240;6.002;2023-06-10T09:05:34;5.15;;;3.97;;
25950;SDS011;13748;52.240;6.002;2023-06-10T09:08:02;7.85;;;3.80;;
25950;SDS011;13748;52.240;6.002;2023-06-10T09:10:32;5.32;;;4.05;;
25950;SDS011;13748;52.240;6.002;2023-06-10T09:12:59;5.85;;;4.00;;
25950;SDS011;13748;52.240;6.002;2023-06-10T09:15:26;6.22;;;4.07;;
25950;SDS011;13748;52.240;6.002;2023-06-10T09:17:53;7.28;;;4.00;;
25950;SDS011;13748;52.240;6.002;2023-06-10T09:20:20;6.65;;;4.13;;
25950;SDS011;13748;52.240;6.002;2023-06-10T09:22:47;5.57;;;3.83;;
25950;SDS011;13748;52.240;6.002;2023-06-10T09:25:14;5.78;;;4.25;;
25950;SDS011;13748;52.240;6.002;2023-06-10T09:30:25;5.70;;;3.90;;
25950;SDS011;13748;52.240;6.002;2023-06-10T09:32:55;6.40;;;4.13;;
25950;SDS011;13748;52.240;6.002;2023-06-10T09:35:24;5.93;;;4.10;;
25950;SDS011;13748;52.240;6.002;2023-06-10T09:37:52;7.05;;;3.67;;
25950;SDS011;13748;52.240;6.002;2023-06-10T09:40:20;7.05;;;3.95;;
25950;SDS011;13748;52.240;6.002;2023-06-10T09:42:49;5.97;;;3.55;;
25950;SDS011;13748;52.240;6.002;2023-06-10T09:45:32;4.82;;;3.85;;
25950;SDS011;13748;52.240;6.002;2023-06-10T09:48:00;6.60;;;3.72;;
25950;SDS011;13748;52.240;6.002;2023-06-10T09:50:27;12.77;;;4.53;;
25950;SDS011;13748;52.240;6.002;2023-06-10T09:52:54;4.97;;;3.60;;
25950;SDS011;13748;52.240;6.002;2023-06-10T09:55:21;6.82;;;4.20;;
25950;SDS011;13748;52.240;6.002;2023-06-10T09:57:49;5.90;;;4.18;;
25950;SDS011;13748;52.240;6.002;2023-06-10T10:00:21;6.78;;;4.22;;
25950;SDS011;13748;52.240;6.002;2023-06-10T10:02:49;5.72;;;3.78;;
25950;SDS011;13748;52.240;6.002;2023-06-10T10:05:18;6.32;;;4.15;;
25950;SDS011;13748;52.240;6.002;2023-06-10T10:07:46;6.85;;;4.10;;
25950;SDS011;13748;52.240;6.002;2023-06-10T10:10:14;6.32;;;4.28;;
25950;SDS011;13748;52.240;6.002;2023-06-10T10:12:42;5.10;;;3.90;;
25950;SDS011;13748;52.240;6.002;2023-06-10T10:15:12;5.72;;;3.97;;
25950;SDS011;13748;52.240;6.002;2023-06-10T10:17:58;8.00;;;3.97;;
25950;SDS011;13748;52.240;6.002;2023-06-10T10:20:32;6.88;;;3.97;;
25950;SDS011;13748;52.240;6.002;2023-06-10T10:23:02;6.70;;;3.90;;
25950;SDS011;13748;52.240;6.002;2023-06-10T10:25:40;8.35;;;4.32;;
25950;SDS011;13748;52.240;6.002;2023-06-10T10:28:10;6.05;;;3.78;;
25950;SDS011;13748;52.240;6.002;2023-06-10T10:30:49;4.63;;;3.42;;
25950;SDS011;13748;52.240;6.002;2023-06-10T10:33:18;6.00;;;4.03;;
25950;SDS011;13748;52.240;6.002;2023-06-10T10:35:49;5.40;;;3.90;;
25950;SDS011;13748;52.240;6.002;2023-06-10T10:38:16;7.43;;;3.90;;
25950;SDS011;13748;52.240;6.002;2023-06-10T10:40:43;5.13;;;3.63;;
25950;SDS011;13748;52.240;6.002;2023-06-10T10:43:12;6.85;;;3.65;;
25950;SDS011;13748;52.240;6.002;2023-06-10T10:45:40;7.45;;;4.07;;
25950;SDS011;13748;52.240;6.002;2023-06-10T10:48:08;5.43;;;3.63;;
25950;SDS011;13748;52.240;6.002;2023-06-10T10:50:38;11.07;;;3.63;;
25950;SDS011;13748;52.240;6.002;2023-06-10T10:53:06;6.70;;;3.72;;
25950;SDS011;13748;52.240;6.002;2023-06-10T10:55:34;4.97;;;3.75;;
25950;SDS011;13748;52.240;6.002;2023-06-10T10:58:07;5.25;;;3.75;;
25950;SDS011;13748;52.240;6.002;2023-06-10T11:00:35;4.90;;;3.85;;
25950;SDS011;13748;52.240;6.002;2023-06-10T11:05:41;7.40;;;4.05;;
25950;SDS011;13748;52.240;6.002;2023-06-10T11:08:11;8.02;;;3.80;;
25950;SDS011;13748;52.240;6.002;2023-06-10T11:10:41;6.68;;;3.90;;
25950;SDS011;13748;52.240;6.002;2023-06-10T11:13:18;7.18;;;3.90;;
25950;SDS011;13748;52.240;6.002;2023-06-10T11:15:51;6.78;;;4.28;;
25950;SDS011;13748;52.240;6.002;2023-06-10T11:18:25;6.15;;;4.00;;
25950;SDS011;13748;52.240;6.002;2023-06-10T11:20:53;5.80;;;3.72;;
25950;SDS011;13748;52.240;6.002;2023-06-10T11:31:41;6.10;;;3.83;;
25950;SDS011;13748;52.240;6.002;2023-06-10T11:34:13;6.55;;;3.65;;
25950;SDS011;13748;52.240;6.002;2023-06-10T11:36:42;4.45;;;3.40;;
25950;SDS011;13748;52.240;6.002;2023-06-10T11:39:12;6.13;;;3.40;;
25950;SDS011;13748;52.240;6.002;2023-06-10T11:41:39;6.78;;;4.30;;
25950;SDS011;13748;52.240;6.002;2023-06-10T11:44:07;5.97;;;3.75;;
25950;SDS011;13748;52.240;6.002;2023-06-10T11:46:44;6.30;;;4.10;;
25950;SDS011;13748;52.240;6.002;2023-06-10T11:49:11;5.22;;;3.88;;
25950;SDS011;13748;52.240;6.002;2023-06-10T11:51:39;5.80;;;4.00;;
25950;SDS011;13748;52.240;6.002;2023-06-10T11:54:10;5.63;;;3.85;;
25950;SDS011;13748;52.240;6.002;2023-06-10T11:56:37;5.97;;;4.10;;
25950;SDS011;13748;52.240;6.002;2023-06-10T11:59:05;5.03;;;3.70;;
25950;SDS011;13748;52.240;6.002;2023-06-10T12:01:36;4.88;;;3.90;;
25950;SDS011;13748;52.240;6.002;2023-06-10T12:04:10;5.70;;;3.97;;
25950;SDS011;13748;52.240;6.002;2023-06-10T12:06:48;6.05;;;3.88;;
25950;SDS011;13748;52.240;6.002;2023-06-10T12:11:54;5.38;;;3.80;;
25950;SDS011;13748;52.240;6.002;2023-06-10T12:19:59;5.60;;;3.50;;
25950;SDS011;13748;52.240;6.002;2023-06-10T12:22:35;6.35;;;3.97;;
25950;SDS011;13748;52.240;6.002;2023-06-10T12:25:06;6.10;;;4.20;;
25950;SDS011;13748;52.240;6.002;2023-06-10T12:27:35;4.53;;;3.53;;
25950;SDS011;13748;52.240;6.002;2023-06-10T12:30:03;5.88;;;3.72;;
25950;SDS011;13748;52.240;6.002;2023-06-10T12:32:39;4.57;;;3.58;;
25950;SDS011;13748;52.240;6.002;2023-06-10T12:35:11;5.22;;;3.70;;
25950;SDS011;13748;52.240;6.002;2023-06-10T12:37:40;6.57;;;4.00;;
25950;SDS011;13748;52.240;6.002;2023-06-10T12:40:09;5.93;;;3.63;;
25950;SDS011;13748;52.240;6.002;2023-06-10T12:42:37;5.45;;;4.20;;
25950;SDS011;13748;52.240;6.002;2023-06-10T12:45:05;5.40;;;3.47;;
25950;SDS011;13748;52.240;6.002;2023-06-10T12:47:36;6.78;;;4.35;;
25950;SDS011;13748;52.240;6.002;2023-06-10T12:50:08;7.05;;;4.18;;
25950;SDS011;13748;52.240;6.002;2023-06-10T12:52:35;5.35;;;4.05;;
25950;SDS011;13748;52.240;6.002;2023-06-10T12:55:03;4.88;;;4.32;;
25950;SDS011;13748;52.240;6.002;2023-06-10T12:57:31;6.22;;;3.95;;
25950;SDS011;13748;52.240;6.002;2023-06-10T12:59:58;4.20;;;3.58;;
25950;SDS011;13748;52.240;6.002;2023-06-10T13:02:30;5.72;;;3.80;;
25950;SDS011;13748;52.240;6.002;2023-06-10T13:04:58;6.65;;;4.30;;
25950;SDS011;13748;52.240;6.002;2023-06-10T13:07:25;5.85;;;4.07;;
25950;SDS011;13748;52.240;6.002;2023-06-10T13:09:54;4.30;;;3.78;;
25950;SDS011;13748;52.240;6.002;2023-06-10T13:12:21;4.40;;;3.35;;
25950;SDS011;13748;52.240;6.002;2023-06-10T13:15:08;5.63;;;4.15;;
25950;SDS011;13748;52.240;6.002;2023-06-10T13:17:36;6.25;;;4.43;;
25950;SDS011;13748;52.240;6.002;2023-06-10T13:20:04;6.32;;;4.15;;
25950;SDS011;13748;52.240;6.002;2023-06-10T13:22:32;4.97;;;4.20;;
25950;SDS011;13748;52.240;6.002;2023-06-10T13:25:01;5.65;;;3.70;;
25950;SDS011;13748;52.240;6.002;2023-06-10T13:27:29;7.75;;;3.80;;
25950;SDS011;13748;52.240;6.002;2023-06-10T13:29:56;4.63;;;3.20;;
25950;SDS011;13748;52.240;6.002;2023-06-10T13:32:23;5.05;;;3.95;;
25950;SDS011;13748;52.240;6.002;2023-06-10T13:34:49;5.22;;;3.70;;
25950;SDS011;13748;52.240;6.002;2023-06-10T13:37:16;6.57;;;4.10;;
25950;SDS011;13748;52.240;6.002;2023-06-10T13:39:46;4.28;;;3.80;;
25950;SDS011;13748;52.240;6.002;2023-06-10T13:42:17;7.35;;;4.47;;
25950;SDS011;13748;52.240;6.002;2023-06-10T13:44:44;4.47;;;3.90;;
25950;SDS011;13748;52.240;6.002;2023-06-10T13:47:11;5.30;;;3.63;;
25950;SDS011;13748;52.240;6.002;2023-06-10T13:49:38;4.88;;;3.67;;
25950;SDS011;13748;52.240;6.002;2023-06-10T13:52:06;5.50;;;3.55;;
25950;SDS011;13748;52.240;6.002;2023-06-10T13:54:33;5.13;;;4.22;;
25950;SDS011;13748;52.240;6.002;2023-06-10T13:57:02;5.68;;;4.07;;
25950;SDS011;13748;52.240;6.002;2023-06-10T13:59:29;6.40;;;3.80;;
25950;SDS011;13748;52.240;6.002;2023-06-10T14:01:56;7.18;;;3.20;;
25950;SDS011;13748;52.240;6.002;2023-06-10T14:04:23;5.18;;;3.70;;
25950;SDS011;13748;52.240;6.002;2023-06-10T14:06:49;6.85;;;3.63;;
25950;SDS011;13748;52.240;6.002;2023-06-10T14:09:17;5.50;;;3.80;;
25950;SDS011;13748;52.240;6.002;2023-06-10T14:11:43;4.65;;;3.55;;
25950;SDS011;13748;52.240;6.002;2023-06-10T14:14:10;6.60;;;5.07;;
25950;SDS011;13748;52.240;6.002;2023-06-10T14:16:37;4.95;;;3.70;;
25950;SDS011;13748;52.240;6.002;2023-06-10T14:19:08;4.95;;;3.45;;
25950;SDS011;13748;52.240;6.002;2023-06-10T14:21:35;4.68;;;3.63;;
25950;SDS011;13748;52.240;6.002;2023-06-10T14:24:02;4.97;;;3.45;;
25950;SDS011;13748;52.240;6.002;2023-06-10T14:26:29;5.53;;;3.38;;
25950;SDS011;13748;52.240;6.002;2023-06-10T14:28:56;5.20;;;3.40;;
25950;SDS011;13748;52.240;6.002;2023-06-10T14:31:22;5.50;;;3.10;;
25950;SDS011;13748;52.240;6.002;2023-06-10T14:33:49;4.60;;;3.05;;
25950;SDS011;13748;52.240;6.002;2023-06-10T14:36:17;4.25;;;3.58;;
25950;SDS011;13748;52.240;6.002;2023-06-10T14:38:45;4.45;;;3.25;;
25950;SDS011;13748;52.240;6.002;2023-06-10T14:41:12;3.78;;;3.35;;
25950;SDS011;13748;52.240;6.002;2023-06-10T14:43:39;4.55;;;3.85;;
25950;SDS011;13748;52.240;6.002;2023-06-10T14:46:06;4.93;;;3.58;;
25950;SDS011;13748;52.240;6.002;2023-06-10T14:48:33;4.10;;;3.35;;
25950;SDS011;13748;52.240;6.002;2023-06-10T14:51:00;6.55;;;3.75;;
25950;SDS011;13748;52.240;6.002;2023-06-10T14:53:27;3.95;;;3.08;;
25950;SDS011;13748;52.240;6.002;2023-06-10T14:55:53;5.57;;;3.58;;
25950;SDS011;13748;52.240;6.002;2023-06-10T14:58:20;6.97;;;3.42;;
25950;SDS011;13748;52.240;6.002;2023-06-10T15:00:47;4.50;;;3.63;;
25950;SDS011;13748;52.240;6.002;2023-06-10T15:03:14;3.80;;;3.42;;
25950;SDS011;13748;52.240;6.002;2023-06-10T15:05:41;5.88;;;3.40;;
25950;SDS011;13748;52.240;6.002;2023-06-10T15:08:08;5.80;;;3.63;;
25950;SDS011;13748;52.240;6.002;2023-06-10T15:10:35;5.18;;;3.78;;
25950;SDS011;13748;52.240;6.002;2023-06-10T15:13:01;5.75;;;3.95;;
25950;SDS011;13748;52.240;6.002;2023-06-10T15:15:28;6.10;;;3.30;;
25950;SDS011;13748;52.240;6.002;2023-06-10T15:17:55;6.60;;;3.85;;